YQM weather

Greater Moncton International Airport
Moncton, New Brunswick, Canada

Public forecast

Using degrees Celsius for public forecast. Weather courtesy of forecast.io.

Current aviation weather report (METAR) for Greater Moncton International Airport

Retrieved 2020/04/03 06:00 UTC (14 minutes ago):

CYQM 030600Z 04019G28KT 15SM OVC005 03/02 A2976 RMK SF8 SLP081

Aviation forecast (TAF) for Greater Moncton International Airport

Retrieved 2020/04/03 06:42 UTC (0 seconds ago):

TAF TAF CYQM 030538Z 0306/0406 04020G30KT P6SM OVC008 TEMPO 0306/0402 4SM -DZ BR OVC005 BECMG 0322/0324 04015G25KT FM040200 04012G22KT 4SM -DZ BR OVC005 PROB30 0402/0406 21/2SM -FZDZ BR RMK NXT FCST BY 031200Z